Time;durP1;ratioP1;P1;durP2;ratioP2;P2;SDS_P1;SDS_P2;PMS_P1;PMS_P2;Temp;Humidity;BMP_temperature;BMP_pressure;BME280_temperature;BME280_humidity;BME280_pressure;Samples;Min_cycle;Max_cycle;Signal;HPM_P1;HPM_P2
2021/09/10 00:00:14;;;;;;;;;2.00;2.00;;;;;27.41;49.62;100328.38;6215667;22;45664;-84
2021/09/10 00:02:40;;;;;;;;;2.75;2.75;;;;;27.37;49.35;100330.44;6216231;22;45207;-84
2021/09/10 00:05:06;;;;;;;;;3.00;3.00;;;;;27.43;50.05;100338.03;6218039;22;45463;-84
2021/09/10 00:07:32;;;;;;;;;2.00;2.00;;;;;27.32;49.73;100314.63;6215932;22;45550;-85
2021/09/10 00:09:57;;;;;;;;;3.25;2.25;;;;;27.40;49.79;100332.03;6217663;22;45695;-84
2021/09/10 00:12:23;;;;;;;;;5.50;4.50;;;;;27.34;49.36;100327.94;6217491;22;45382;-85
2021/09/10 00:14:48;;;;;;;;;3.75;3.50;;;;;27.35;49.85;100328.78;6215896;22;45314;-84
2021/09/10 00:17:13;;;;;;;;;3.00;3.00;;;;;27.33;50.07;100332.44;6191211;22;45419;-85
2021/09/10 00:19:39;;;;;;;;;3.00;3.00;;;;;27.38;49.30;100348.22;6190718;22;47405;-84
2021/09/10 00:22:04;;;;;;;;;2.75;2.75;;;;;27.26;49.35;100324.91;6190522;22;45258;-84
2021/09/10 00:24:32;;;;;;;;;4.50;2.25;;;;;27.30;49.86;100335.34;6217567;22;45301;-84
2021/09/10 00:27:00;;;;;;;;;2.50;2.50;;;;;27.28;49.61;100337.25;6217261;22;45155;-84
2021/09/10 00:29:28;;;;;;;;;3.25;3.25;;;;;27.29;49.20;100341.66;6191053;22;46204;-84
2021/09/10 00:31:53;;;;;;;;;3.00;2.75;;;;;27.21;49.74;100333.25;6166259;22;45339;-83
2021/09/10 00:34:19;;;;;;;;;2.50;2.50;;;;;27.27;50.02;100345.38;6216511;22;45182;-84
2021/09/10 00:36:45;;;;;;;;;3.75;3.75;;;;;27.24;49.97;100343.75;6191020;22;45443;-84
2021/09/10 00:39:14;;;;;;;;;2.00;2.00;;;;;27.19;50.01;100327.16;6215295;22;48115;-84
2021/09/10 00:41:40;;;;;;;;;2.75;2.75;;;;;27.21;50.21;100337.75;6215536;22;45115;-84
2021/09/10 00:44:06;;;;;;;;;6.25;4.00;;;;;27.25;50.08;100344.63;6190370;22;45167;-84
2021/09/10 00:46:31;;;;;;;;;4.00;4.00;;;;;27.24;50.40;100345.59;6217743;22;45264;-84
2021/09/10 00:48:57;;;;;;;;;2.00;2.00;;;;;27.29;49.69;100341.66;6190940;22;45395;-84
2021/09/10 00:51:22;;;;;;;;;3.75;3.75;;;;;27.26;50.45;100336.47;6215639;22;45340;-84
2021/09/10 00:53:50;;;;;;;;;4.50;4.50;;;;;27.28;50.22;100349.81;6216259;22;45324;-84
2021/09/10 00:56:16;;;;;;;;;4.75;4.00;;;;;27.28;50.21;100337.25;6217504;22;45341;-84
2021/09/10 00:58:41;;;;;;;;;4.25;4.00;;;;;27.29;50.42;100349.69;6190458;22;46249;-84
2021/09/10 01:01:07;;;;;;;;;3.00;3.00;;;;;27.31;50.12;100354.94;6165204;22;45267;-84
2021/09/10 01:03:33;;;;;;;;;2.00;2.00;;;;;27.32;50.20;100360.19;6190737;22;45215;-84
2021/09/10 01:05:58;;;;;;;;;4.50;4.50;;;;;27.37;50.53;100367.09;6190333;22;45259;-84
2021/09/10 01:08:24;;;;;;;;;3.00;3.00;;;;;27.35;49.96;100369.84;6215936;22;45264;-84
2021/09/10 01:10:50;;;;;;;;;5.00;4.00;;;;;27.26;49.60;100357.91;6216137;22;45241;-84
2021/09/10 01:13:15;;;;;;;;;5.00;4.00;;;;;27.23;50.10;100357.28;6190745;22;45251;-84
2021/09/10 01:15:41;;;;;;;;;3.00;3.00;;;;;27.31;50.52;100377.25;6190741;22;45581;-84
2021/09/10 01:18:06;;;;;;;;;3.00;3.00;;;;;27.34;50.26;100378.84;6190102;22;47329;-84
2021/09/10 01:20:34;;;;;;;;;4.25;4.25;;;;;27.30;50.29;100374.66;6217570;22;45256;-83
2021/09/10 01:22:59;;;;;;;;;2.25;2.25;;;;;27.29;50.67;100375.63;6215676;22;45397;-84
2021/09/10 01:25:25;;;;;;;;;4.25;3.00;;;;;27.26;50.21;100354.38;6190720;22;45503;-84
2021/09/10 01:27:53;;;;;;;;;3.50;3.50;;;;;27.23;49.94;100355.44;6215040;22;45624;-84
2021/09/10 01:30:24;;;;;;;;;3.75;3.75;;;;;27.30;50.06;100380.03;6215798;22;45219;-84
2021/09/10 01:32:51;;;;;;;;;4.75;4.75;;;;;27.16;50.49;100359.50;6218377;22;45284;-83
2021/09/10 01:35:17;;;;;;;;;4.00;3.00;;;;;27.26;50.01;100378.50;6191484;22;45433;-83
2021/09/10 01:37:42;;;;;;;;;2.75;2.75;;;;;27.19;50.40;100371.81;6217922;22;45509;-83
2021/09/10 01:40:08;;;;;;;;;3.25;3.25;;;;;27.22;51.05;100377.00;6217108;22;45612;-84
2021/09/10 01:42:34;;;;;;;;;2.25;2.25;;;;;27.20;50.51;100373.56;6215589;22;45177;-84
2021/09/10 01:44:59;;;;;;;;;6.25;4.75;;;;;27.18;50.52;100370.09;6215671;22;45356;-81
2021/09/10 01:47:25;;;;;;;;;2.50;2.50;;;;;27.13;50.72;100362.38;6165107;22;47389;-83
2021/09/10 01:50:03;;;;;;;;;;;;;;;;;;;;;
2021/09/10 01:52:36;;;;;;;;;3.75;2.25;;;;;27.14;50.98;100361.41;6216326;22;68928;-83
2021/09/10 01:55:17;;;;;;;;;;;;;;;;;;;;;
2021/09/10 01:57:46;;;;;;;;;4.25;4.25;;;;;27.12;50.84;100343.72;6209880;22;76407;-83
2021/09/10 02:00:22;;;;;;;;;;;;;;;;;;;;;
2021/09/10 02:02:48;;;;;;;;;4.50;3.00;;;;;27.11;50.48;100363.44;6216232;22;68998;-83
2021/09/10 02:05:16;;;;;;;;;4.50;2.25;;;;;27.20;50.95;100378.91;6215425;22;45343;-82
2021/09/10 02:07:41;;;;;;;;;5.25;4.00;;;;;27.12;50.60;100367.84;6190816;22;45931;-82
2021/09/10 02:10:08;;;;;;;;;5.00;5.00;;;;;27.20;50.72;100373.56;6189890;22;45137;-82
2021/09/10 02:12:42;;;;;;;;;3.00;2.00;;;;;27.14;50.91;100369.44;6214993;22;45227;-83
2021/09/10 02:15:08;;;;;;;;;5.00;4.00;;;;;27.14;50.52;100373.94;6215817;22;45154;-82
2021/09/10 02:17:36;;;;;;;;;2.25;2.25;;;;;27.21;51.08;100380.63;6214907;22;46198;-82
2021/09/10 02:20:22;;;;;;;;;3.75;3.75;;;;;27.27;51.11;100390.94;6215140;22;45421;-82
2021/09/10 02:22:50;;;;;;;;;4.25;4.25;;;;;27.27;51.25;100385.56;6217043;22;45375;-82
2021/09/10 02:25:16;;;;;;;;;4.00;4.00;;;;;27.21;50.73;100375.28;6215108;22;45434;-82
2021/09/10 02:27:41;;;;;;;;;4.00;3.50;;;;;27.25;50.79;100379.47;6215066;22;46052;-82
2021/09/10 02:30:09;;;;;;;;;4.00;4.00;;;;;27.31;50.58;100395.16;6214790;22;45117;-82
2021/09/10 02:32:35;;;;;;;;;5.50;3.75;;;;;27.29;50.82;100386.34;6215069;22;45182;-82
2021/09/10 02:35:09;;;;;;;;;3.75;3.75;;;;;27.25;50.99;100371.41;6214925;22;45442;-82
2021/09/10 02:37:34;;;;;;;;;2.25;2.25;;;;;27.24;51.12;100367.03;6214602;22;46438;-82
2021/09/10 02:40:00;;;;;;;;;4.00;3.00;;;;;27.28;50.93;100382.81;6217577;22;45659;-82
2021/09/10 02:42:28;;;;;;;;;3.50;3.50;;;;;27.26;50.83;100374.00;6216639;22;45138;-82
2021/09/10 02:44:53;;;;;;;;;2.00;2.00;;;;;27.38;50.86;100388.41;6191591;22;45476;-83
2021/09/10 02:47:23;;;;;;;;;4.00;3.50;;;;;27.26;50.70;100370.44;6216307;22;48079;-82
2021/09/10 02:49:49;;;;;;;;;4.00;4.00;;;;;27.32;50.77;100378.09;6216001;22;45221;-82
2021/09/10 02:52:14;;;;;;;;;3.75;3.25;;;;;27.36;51.12;100389.47;6217125;22;45090;-82
2021/09/10 02:54:40;;;;;;;;;4.00;4.00;;;;;27.24;50.80;100375.91;6190907;22;45377;-82
2021/09/10 02:57:05;;;;;;;;;4.00;4.00;;;;;27.23;50.68;100370.66;6190578;22;48738;-82
2021/09/10 02:59:30;;;;;;;;;4.75;3.25;;;;;27.24;50.62;100369.69;6218223;22;45081;-82
2021/09/10 03:01:58;;;;;;;;;2.25;2.25;;;;;27.22;50.95;100371.63;6190715;22;45401;-82
2021/09/10 03:04:23;;;;;;;;;3.50;3.50;;;;;27.20;50.82;100368.19;6216220;22;45439;-82
2021/09/10 03:06:49;;;;;;;;;5.00;5.00;;;;;27.15;50.53;100354.25;6218098;22;45177;-82
2021/09/10 03:09:22;;;;;;;;;4.00;4.00;;;;;27.20;50.76;100366.38;6191512;22;45351;-82
2021/09/10 03:11:47;;;;;;;;;4.00;3.75;;;;;27.21;51.00;100376.13;6216582;22;45343;-82
2021/09/10 03:14:13;;;;;;;;;3.25;3.25;;;;;27.09;51.44;100351.94;6215652;22;45225;-82
2021/09/10 03:16:38;;;;;;;;;3.50;3.50;;;;;27.13;51.15;100356.16;6216547;22;45399;-82
2021/09/10 03:19:06;;;;;;;;;4.75;3.00;;;;;27.14;50.89;100357.88;6216668;22;45344;-82
2021/09/10 03:21:31;;;;;;;;;5.25;4.25;;;;;27.10;51.04;100359.88;6216384;22;45226;-82
2021/09/10 03:23:59;;;;;;;;;4.75;4.75;;;;;27.15;51.04;100362.28;6216629;22;45174;-82
2021/09/10 03:26:24;;;;;;;;;4.25;4.25;;;;;27.08;50.98;100359.13;6215978;22;47231;-82
2021/09/10 03:28:50;;;;;;;;;4.00;3.00;;;;;27.06;50.97;100360.19;6217593;22;45209;-82
2021/09/10 03:31:17;;;;;;;;;4.75;4.75;;;;;27.15;50.99;100368.50;6216146;22;45120;-82
2021/09/10 03:33:43;;;;;;;;;4.00;3.00;;;;;27.08;51.46;100352.91;6191038;22;45361;-82
2021/09/10 03:36:08;;;;;;;;;5.00;3.50;;;;;27.14;51.30;100372.13;6216449;22;46228;-82
2021/09/10 03:38:36;;;;;;;;;4.75;4.00;;;;;27.17;51.23;100373.75;6215687;22;45457;-82
2021/09/10 03:41:01;;;;;;;;;5.00;5.00;;;;;27.10;51.32;100356.34;6217924;22;45244;-82
2021/09/10 03:43:27;;;;;;;;;4.75;4.75;;;;;27.08;50.98;100344.88;6190177;22;45220;-82
2021/09/10 03:45:52;;;;;;;;;6.50;5.50;;;;;27.13;51.76;100358.84;6216649;22;45289;-82
2021/09/10 03:48:18;;;;;;;;;5.25;5.25;;;;;27.22;50.95;100374.31;6191442;22;45204;-82
2021/09/10 03:50:43;;;;;;;;;5.00;5.00;;;;;27.08;51.39;100356.44;6190091;22;45210;-82
2021/09/10 03:53:09;;;;;;;;;5.00;3.25;;;;;27.14;51.42;100358.75;6217858;22;45205;-82
2021/09/10 03:55:34;;;;;;;;;7.50;4.00;;;;;27.17;50.85;100371.91;6190896;22;45252;-82
2021/09/10 03:58:00;;;;;;;;;5.25;5.25;;;;;27.14;51.08;100366.78;6217418;22;45150;-82
2021/09/10 04:00:27;;;;;;;;;5.00;5.00;;;;;27.14;51.19;100373.94;6216608;22;45242;-82
2021/09/10 04:02:53;;;;;;;;;7.25;5.25;;;;;27.00;51.10;100351.56;6215873;22;46045;-82
2021/09/10 04:05:18;;;;;;;;;4.25;4.25;;;;;27.03;51.21;100362.13;6215742;22;45959;-82
2021/09/10 04:07:44;;;;;;;;;6.25;5.00;;;;;26.95;51.27;100350.16;6217659;22;45283;-82
2021/09/10 04:10:12;;;;;;;;;5.00;5.00;;;;;26.92;51.69;100356.56;6241427;22;45555;-82
2021/09/10 04:12:37;;;;;;;;;4.50;4.25;;;;;26.98;51.39;100368.69;6215895;22;45213;-82
2021/09/10 04:15:03;;;;;;;;;4.00;4.00;;;;;26.97;51.05;100365.16;6190839;22;45943;-82
2021/09/10 04:17:29;;;;;;;;;4.00;4.00;;;;;26.97;51.30;100365.16;6215465;22;45248;-82
2021/09/10 04:19:54;;;;;;;;;6.25;4.75;;;;;26.99;51.64;100365.91;6216322;22;45241;-82
2021/09/10 04:22:19;;;;;;;;;4.75;4.75;;;;;27.05;51.66;100372.72;6216056;22;45322;-82
2021/09/10 04:24:45;;;;;;;;;7.75;5.00;;;;;27.04;51.33;100362.97;6217584;22;45393;-82
2021/09/10 04:27:10;;;;;;;;;6.75;6.00;;;;;27.01;51.52;100360.44;6215154;22;45131;-82
2021/09/10 04:29:36;;;;;;;;;6.25;5.25;;;;;27.15;51.48;100373.00;6217843;22;45093;-82
2021/09/10 04:32:01;;;;;;;;;6.00;6.00;;;;;27.08;51.04;100358.28;6217466;22;45410;-82
2021/09/10 04:34:27;;;;;;;;;4.00;4.00;;;;;27.07;51.35;100352.06;6215726;22;46086;-82
2021/09/10 04:36:55;;;;;;;;;5.00;5.00;;;;;27.09;51.98;100354.63;6216293;22;45352;-82
2021/09/10 04:39:20;;;;;;;;;6.75;4.75;;;;;27.08;51.40;100352.91;6217510;22;45389;-83
2021/09/10 04:41:46;;;;;;;;;5.00;4.75;;;;;27.04;51.68;100355.81;6215920;22;45391;-82
2021/09/10 04:44:14;;;;;;;;;6.50;5.25;;;;;27.07;51.86;100367.28;6217796;22;45912;-82
2021/09/10 04:46:39;;;;;;;;;4.25;4.25;;;;;27.05;51.61;100364.69;6217460;22;45162;-82
2021/09/10 04:49:04;;;;;;;;;5.75;4.00;;;;;27.03;51.62;100364.81;6217991;22;45334;-82
2021/09/10 04:51:30;;;;;;;;;4.25;4.25;;;;;27.08;51.85;100369.00;6215694;22;45270;-81
2021/09/10 04:53:57;;;;;;;;;4.00;4.00;;;;;26.99;51.17;100359.69;6215955;22;46251;-81
2021/09/10 04:56:22;;;;;;;;;5.25;5.25;;;;;27.06;51.24;100376.28;6215727;22;45394;-82
2021/09/10 04:58:47;;;;;;;;;6.00;6.00;;;;;27.02;51.71;100376.44;6215249;22;45436;-81
2021/09/10 05:01:13;;;;;;;;;5.50;5.00;;;;;26.97;51.52;100362.47;6217417;22;45292;-81
2021/09/10 05:03:38;;;;;;;;;5.00;5.00;;;;;26.97;51.63;100367.84;6217901;22;46362;-81
2021/09/10 05:06:04;;;;;;;;;5.50;5.00;;;;;26.96;51.27;100366.13;6216250;22;45480;-82
2021/09/10 05:08:30;;;;;;;;;4.75;4.75;;;;;27.01;51.81;100372.03;6217782;22;45293;-81
2021/09/10 05:10:57;;;;;;;;;4.75;4.00;;;;;27.02;51.63;100373.78;6217415;22;45262;-82
2021/09/10 05:13:25;;;;;;;;;5.00;5.00;;;;;26.97;51.82;100357.13;6217468;22;45202;-82
2021/09/10 05:15:53;;;;;;;;;5.75;5.75;;;;;27.02;51.63;100368.41;6218931;22;45204;-83
2021/09/10 05:18:18;;;;;;;;;7.00;6.25;;;;;27.11;51.52;100391.09;6215729;22;45348;-85
2021/09/10 05:20:44;;;;;;;;;9.25;5.00;;;;;27.08;51.23;100383.25;6216939;22;45470;-92
2021/09/10 05:23:19;;;;;;;;;6.00;6.00;;;;;27.02;51.16;100379.13;6190654;22;47235;-86
2021/09/10 05:25:54;;;;;;;;;6.50;5.50;;;;;27.05;51.28;100380.78;6216899;22;45440;-88
2021/09/10 05:28:19;;;;;;;;;4.75;4.50;;;;;27.09;51.37;100386.78;6191618;22;45493;-83
2021/09/10 05:30:45;;;;;;;;;5.00;5.00;;;;;27.14;51.28;100390.88;6215969;22;45594;-79
2021/09/10 05:33:10;;;;;;;;;6.00;5.00;;;;;27.14;50.92;100396.25;6217416;22;45367;-79
2021/09/10 05:35:36;;;;;;;;;6.75;6.75;;;;;27.15;51.21;100400.63;6217322;22;45325;-79
2021/09/10 05:38:24;;;;;;;;;5.25;4.75;;;;;27.18;51.02;100403.09;6191605;22;54545;-79
2021/09/10 05:40:57;;;;;;;;;5.50;5.00;;;;;27.16;50.92;100402.34;6215769;22;45440;-86
2021/09/10 05:43:22;;;;;;;;;5.00;5.00;;;;;27.21;51.05;100412.78;6192756;22;45425;-89
2021/09/10 05:45:48;;;;;;;;;6.50;4.25;;;;;27.20;50.54;100409.25;6219295;22;47577;-89
2021/09/10 05:48:18;;;;;;;;;6.75;6.75;;;;;27.16;50.56;100401.50;6191325;22;45382;-89
2021/09/10 05:50:44;;;;;;;;;6.00;6.00;;;;;27.10;50.27;100397.38;6215546;22;45825;-84
2021/09/10 05:53:09;;;;;;;;;5.00;4.00;;;;;27.11;51.02;100412.53;6218136;22;45716;-85
2021/09/10 05:55:35;;;;;;;;;5.50;5.50;;;;;27.13;50.34;100425.81;6217351;22;45327;-84
2021/09/10 05:58:01;;;;;;;;;4.25;4.25;;;;;27.09;50.18;100426.97;6216912;22;45463;-84
2021/09/10 06:00:26;;;;;;;;;4.25;4.25;;;;;27.06;50.66;100436.06;6217187;22;45346;-87
2021/09/10 06:02:52;;;;;;;;;5.75;5.00;;;;;27.00;50.63;100429.22;6191098;22;48071;-91
2021/09/10 06:05:17;;;;;;;;;6.00;5.25;;;;;26.92;50.40;100423.50;6191559;22;45271;-87
2021/09/10 06:07:43;;;;;;;;;6.25;6.25;;;;;26.90;50.74;100435.28;6191329;22;45396;-95
2021/09/10 06:10:09;;;;;;;;;6.75;6.00;;;;;26.80;51.24;100435.00;6167085;22;46328;-86
2021/09/10 06:12:34;;;;;;;;;4.25;4.00;;;;;26.80;50.98;100445.72;6193275;22;47341;-86
2021/09/10 06:15:00;;;;;;;;;6.50;6.00;;;;;26.72;51.19;100424.78;6190202;22;45225;-85
2021/09/10 06:17:25;;;;;;;;;5.25;5.25;;;;;26.76;51.46;100433.50;6215815;22;45189;-87
2021/09/10 06:19:50;;;;;;;;;7.25;4.50;;;;;26.66;51.20;100425.16;6216688;22;53573;-86
2021/09/10 06:22:16;;;;;;;;;6.75;6.00;;;;;26.73;51.30;100441.69;6217334;22;45144;-86
2021/09/10 06:24:43;;;;;;;;;5.50;5.00;;;;;26.70;51.63;100444.59;6215040;22;46240;-88
2021/09/10 06:27:09;;;;;;;;;7.25;7.25;;;;;26.69;51.33;100454.44;6190886;22;45270;-87
2021/09/10 06:29:34;;;;;;;;;8.25;6.00;;;;;26.60;51.76;100440.75;6215463;22;45322;-88
2021/09/10 06:32:00;;;;;;;;;6.00;6.00;;;;;26.59;51.57;100439.91;6190119;22;45823;-87
2021/09/10 06:34:26;;;;;;;;;6.50;6.00;;;;;26.60;51.83;100448.78;6215194;22;50420;-87
2021/09/10 06:36:54;;;;;;;;;5.00;5.00;;;;;26.55;51.80;100449.06;6195799;22;45227;-87
2021/09/10 06:39:20;;;;;;;;;6.00;5.25;;;;;26.55;51.69;100453.56;6194266;22;45111;-90
2021/09/10 06:41:45;;;;;;;;;7.50;7.25;;;;;26.57;51.71;100454.31;6216753;22;46054;-88
2021/09/10 06:44:11;;;;;;;;;6.50;5.50;;;;;26.56;51.75;100456.13;6217139;22;45270;-87
2021/09/10 06:46:36;;;;;;;;;8.00;7.00;;;;;26.51;51.34;100449.38;6217563;22;45233;-88
2021/09/10 06:49:02;;;;;;;;;8.50;7.50;;;;;26.57;51.43;100457.84;6215639;22;45611;-87
2021/09/10 06:51:27;;;;;;;;;4.75;4.00;;;;;26.58;51.53;100464.91;6190694;22;48112;-88
2021/09/10 06:53:52;;;;;;;;;6.00;6.00;;;;;26.52;51.55;100468.00;6216463;22;45363;-88
2021/09/10 06:56:18;;;;;;;;;6.50;6.50;;;;;26.51;51.93;100473.44;6215321;22;46058;-85
2021/09/10 06:58:44;;;;;;;;;7.25;7.00;;;;;26.56;51.87;100479.38;6187472;22;45559;-87
2021/09/10 07:01:12;;;;;;;;;6.50;6.00;;;;;26.57;52.08;100481.94;6209140;22;47320;-86
2021/09/10 07:03:38;;;;;;;;;7.50;5.50;;;;;26.60;53.03;100487.13;6212126;22;45355;-83
2021/09/10 07:06:03;;;;;;;;;10.50;7.00;;;;;26.62;52.48;100484.34;6184810;22;45671;-84
2021/09/10 07:08:31;;;;;;;;;7.75;7.00;;;;;26.63;52.56;100480.72;6187584;22;45400;-83
2021/09/10 07:10:57;;;;;;;;;9.50;8.25;;;;;26.68;52.21;100481.31;6189601;22;45372;-85
2021/09/10 07:13:22;;;;;;;;;7.50;6.25;;;;;26.66;51.64;100481.38;6188618;22;45270;-84
2021/09/10 07:15:48;;;;;;;;;6.50;6.25;;;;;26.69;51.77;100488.38;6215490;22;45355;-85
2021/09/10 07:18:13;;;;;;;;;9.75;7.75;;;;;26.69;51.90;100494.59;6186938;22;45607;-85
2021/09/10 07:20:38;;;;;;;;;7.25;6.50;;;;;26.66;52.00;100486.72;6205417;22;52575;-85
2021/09/10 07:23:04;;;;;;;;;7.50;6.50;;;;;26.68;51.80;100483.97;6163303;22;45431;-84
2021/09/10 07:25:30;;;;;;;;;6.75;6.75;;;;;26.66;51.93;100481.38;6190216;22;45154;-84
2021/09/10 07:27:55;;;;;;;;;6.50;5.50;;;;;26.75;51.65;100498.69;6189262;22;45370;-83
2021/09/10 07:30:20;;;;;;;;;6.00;6.00;;;;;26.76;51.32;100492.41;6190211;22;45362;-84
2021/09/10 07:32:46;;;;;;;;;6.25;6.25;;;;;26.69;51.69;100488.38;6215568;22;45363;-84
2021/09/10 07:35:11;;;;;;;;;6.25;6.00;;;;;26.70;51.30;100492.78;6215850;22;45350;-84
2021/09/10 07:37:37;;;;;;;;;6.00;6.00;;;;;26.65;51.26;100494.84;6217579;22;45130;-84
2021/09/10 07:40:07;;;;;;;;;8.50;8.50;;;;;26.57;51.51;100495.31;6179042;22;47302;-83
2021/09/10 07:42:32;;;;;;;;;8.00;7.00;;;;;26.53;51.40;100499.16;6190068;22;45319;-84
2021/09/10 07:44:58;;;;;;;;;7.50;6.75;;;;;26.52;51.28;100499.25;6189785;22;45267;-84
2021/09/10 07:47:23;;;;;;;;;8.00;7.75;;;;;26.45;51.30;100506.78;6165095;22;48956;-83
2021/09/10 07:49:52;;;;;;;;;8.75;7.00;;;;;26.34;51.33;100498.53;6190217;22;48100;-85
2021/09/10 07:52:17;;;;;;;;;7.00;7.00;;;;;26.37;51.74;100523.28;6163080;22;54615;-81
2021/09/10 07:54:43;;;;;;;;;8.50;7.50;;;;;26.32;51.83;100520.00;6164542;22;45311;-79
2021/09/10 07:57:08;;;;;;;;;8.00;8.00;;;;;26.26;51.85;100512.34;6164124;22;45348;-79
2021/09/10 07:59:34;;;;;;;;;7.75;7.75;;;;;26.28;51.49;100513.13;6214810;22;47386;-80
2021/09/10 08:01:59;;;;;;;;;9.25;9.25;;;;;26.27;51.31;100514.06;6216110;22;45237;-80
2021/09/10 08:04:25;;;;;;;;;8.25;8.25;;;;;26.31;51.44;100514.75;6216442;22;45198;-80
2021/09/10 08:06:51;;;;;;;;;8.50;8.25;;;;;26.29;51.58;100524.69;6215551;22;45485;-80
2021/09/10 08:09:16;;;;;;;;;6.75;5.50;;;;;26.28;51.84;100531.84;6215209;22;49763;-80
2021/09/10 08:11:42;;;;;;;;;8.50;8.25;;;;;26.21;52.01;100526.00;6241025;22;45645;-81
2021/09/10 08:14:08;;;;;;;;;7.25;6.75;;;;;26.21;51.68;100536.69;6217719;22;45323;-80
2021/09/10 08:16:34;;;;;;;;;8.00;6.75;;;;;26.19;51.57;100535.94;6217604;22;45461;-80
2021/09/10 08:18:59;;;;;;;;;7.50;6.25;;;;;26.12;52.06;100525.69;6217532;22;45296;-80
2021/09/10 08:21:25;;;;;;;;;6.25;5.00;;;;;26.09;51.38;100526.72;6217290;22;45470;-80
2021/09/10 08:23:50;;;;;;;;;7.00;6.00;;;;;26.16;51.52;100535.25;6217766;22;45287;-80
2021/09/10 08:26:16;;;;;;;;;5.50;5.50;;;;;26.15;51.74;100530.84;6215646;22;45448;-79
2021/09/10 08:28:41;;;;;;;;;5.25;5.00;;;;;26.13;51.59;100533.59;6217284;22;46117;-80
2021/09/10 08:31:07;;;;;;;;;5.25;5.25;;;;;26.11;51.81;100530.16;6214945;22;45540;-80
2021/09/10 08:33:33;;;;;;;;;4.50;4.50;;;;;26.13;51.75;100533.59;6215232;22;45243;-81
2021/09/10 08:35:58;;;;;;;;;4.50;4.50;;;;;26.17;51.83;100543.19;6189996;22;45235;-81
2021/09/10 08:38:24;;;;;;;;;7.75;6.00;;;;;26.12;51.60;100529.22;6189417;22;46899;-80
2021/09/10 08:40:49;;;;;;;;;7.00;5.50;;;;;26.15;51.55;100533.50;6217076;22;46057;-79
2021/09/10 08:43:14;;;;;;;;;5.75;5.50;;;;;26.21;51.38;100538.50;6190215;22;45239;-79
2021/09/10 08:45:40;;;;;;;;;5.75;4.25;;;;;26.23;51.32;100543.75;6189374;22;45230;-79
2021/09/10 08:48:05;;;;;;;;;7.00;5.00;;;;;26.23;51.76;100541.94;6190159;22;48072;-80
2021/09/10 08:50:31;;;;;;;;;7.25;6.00;;;;;26.26;51.05;100540.94;6215199;22;45234;-81
2021/09/10 08:52:56;;;;;;;;;8.25;6.75;;;;;26.21;51.25;100541.19;6190894;22;45187;-80
2021/09/10 08:55:24;;;;;;;;;8.25;6.00;;;;;26.29;51.00;100552.28;6216101;22;45252;-81
2021/09/10 08:57:51;;;;;;;;;5.75;5.75;;;;;26.30;51.58;100550.47;6189243;22;46083;-79
2021/09/10 09:00:18;;;;;;;;;7.00;5.00;;;;;26.29;51.09;100552.28;6217839;22;45331;-81
2021/09/10 09:03:00;;;;;;;;;6.25;6.00;;;;;26.29;50.79;100551.44;6217583;22;45320;-81
2021/09/10 09:05:26;;;;;;;;;5.00;5.00;;;;;26.27;51.09;100562.22;6216892;22;45372;-80
2021/09/10 09:08:15;;;;;;;;;7.00;4.50;;;;;26.26;50.97;100562.34;6215909;22;46061;-80
2021/09/10 09:10:51;;;;;;;;;5.00;5.00;;;;;26.21;50.91;100558.09;6240823;22;45228;-80
2021/09/10 09:13:17;;;;;;;;;4.75;4.25;;;;;26.17;50.66;100561.06;6215078;22;45231;-80
2021/09/10 09:15:42;;;;;;;;;8.50;4.00;;;;;26.14;50.61;100555.88;6215482;22;45359;-81
2021/09/10 09:18:07;;;;;;;;;4.00;4.00;;;;;26.10;50.61;100548.97;6216742;22;45245;-82
2021/09/10 09:20:36;;;;;;;;;5.00;5.00;;;;;26.10;50.79;100552.53;6189817;22;45643;-83
2021/09/10 09:23:02;;;;;;;;;3.75;3.25;;;;;26.12;50.65;100557.78;6215942;22;45348;-84
2021/09/10 09:25:33;;;;;;;;;5.00;5.00;;;;;25.99;50.54;100543.41;6187446;22;45217;-84
2021/09/10 09:28:18;;;;;;;;;5.75;5.00;;;;;26.04;50.71;100555.53;6188610;22;46563;-88
2021/09/10 09:30:44;;;;;;;;;5.00;5.00;;;;;26.04;50.97;100563.56;6215945;22;45447;-87
2021/09/10 09:33:12;;;;;;;;;5.25;5.25;;;;;26.06;50.63;100555.44;6190640;22;45438;-84
2021/09/10 09:35:38;;;;;;;;;5.25;4.50;;;;;26.15;50.88;100568.28;6239839;22;45853;-85
2021/09/10 09:38:16;;;;;;;;;5.50;5.25;;;;;26.09;50.39;100542.78;6217083;22;45340;-85
2021/09/10 09:40:41;;;;;;;;;5.00;5.00;;;;;26.19;50.48;100557.31;6215051;22;45235;-85
2021/09/10 09:43:23;;;;;;;;;5.50;4.00;;;;;26.29;50.43;100564.81;6189778;22;45895;-86
2021/09/10 09:45:50;;;;;;;;;5.25;5.25;;;;;26.30;50.76;100563.84;6192256;22;45245;-86
2021/09/10 09:48:16;;;;;;;;;6.00;6.00;;;;;26.29;50.34;100546.94;6189361;22;48086;-87
2021/09/10 09:50:42;;;;;;;;;4.00;3.25;;;;;26.36;50.35;100552.81;6189755;22;45365;-84
2021/09/10 09:53:08;;;;;;;;;3.25;3.25;;;;;26.44;50.63;100563.94;6190998;22;45263;-86
2021/09/10 09:55:34;;;;;;;;;7.00;7.00;;;;;26.46;50.26;100570.91;6190273;22;45443;-86
2021/09/10 09:58:04;;;;;;;;;6.00;4.25;;;;;26.45;50.23;100555.81;6166194;22;47629;-84
2021/09/10 10:00:29;;;;;;;;;5.75;5.00;;;;;26.54;50.69;100575.81;6215598;22;45271;-85
2021/09/10 10:02:55;;;;;;;;;5.50;4.00;;;;;26.55;49.83;100569.50;6190367;22;45334;-85
2021/09/10 10:05:20;;;;;;;;;4.25;4.25;;;;;26.54;49.93;100556.22;6201210;22;45373;-85
2021/09/10 10:08:10;;;;;;;;;5.00;5.00;;;;;26.58;50.06;100565.78;6194256;22;45192;-86
2021/09/10 10:10:45;;;;;;;;;6.25;6.25;;;;;26.57;49.89;100561.38;6221773;22;45599;-84
2021/09/10 10:13:12;;;;;;;;;5.00;5.00;;;;;26.61;50.62;100562.94;6219907;22;45343;-86
2021/09/10 10:15:44;;;;;;;;;5.50;4.50;;;;;26.58;49.80;100553.25;6190830;22;45186;-86
2021/09/10 10:18:10;;;;;;;;;5.00;5.00;;;;;26.60;49.44;100554.06;6190683;22;45417;-85
2021/09/10 10:20:45;;;;;;;;;4.75;4.00;;;;;26.65;49.41;100564.47;6189613;22;45452;-85
2021/09/10 10:23:44;;;;;;;;;6.25;4.50;;;;;26.66;49.24;100556.34;6240483;22;45445;-85
2021/09/10 10:26:33;;;;;;;;;4.00;4.00;;;;;26.64;49.14;100544.00;6216604;22;45090;-85
2021/09/10 10:29:12;;;;;;;;;5.50;4.25;;;;;26.61;48.93;100525.47;6167612;22;48333;-85
2021/09/10 10:31:59;;;;;;;;;4.00;4.00;;;;;26.72;48.89;100539.03;6190087;22;45371;-85
2021/09/10 10:34:28;;;;;;;;;4.00;4.00;;;;;26.65;48.72;100529.66;6240327;22;45214;-83
2021/09/10 10:36:54;;;;;;;;;5.50;4.50;;;;;26.73;48.85;100544.31;6196641;22;45369;-84
2021/09/10 10:39:27;;;;;;;;;4.75;4.25;;;;;26.75;49.07;100542.38;6218166;22;45300;-84
2021/09/10 10:41:56;;;;;;;;;4.25;4.25;;;;;26.77;48.51;100543.19;6190013;22;45394;-84
2021/09/10 10:44:30;;;;;;;;;3.50;3.50;;;;;26.81;48.37;100542.97;6216471;22;45467;-84
2021/09/10 10:47:08;;;;;;;;;5.25;5.00;;;;;26.75;48.24;100526.31;6239798;22;45473;-84
2021/09/10 10:49:37;;;;;;;;;5.00;5.00;;;;;26.83;48.72;100535.69;6216434;22;45266;-84
2021/09/10 10:52:28;;;;;;;;;6.75;4.75;;;;;26.84;47.94;100540.09;6197152;22;45402;-83
2021/09/10 10:55:17;;;;;;;;;3.00;3.00;;;;;26.85;47.34;100539.19;6216944;22;45119;-84
2021/09/10 10:57:43;;;;;;;;;5.50;5.00;;;;;26.82;47.83;100532.16;6213944;22;45249;-85
2021/09/10 11:00:27;;;;;;;;;4.75;4.00;;;;;26.84;47.65;100540.97;6190385;22;46651;-85
2021/09/10 11:03:14;;;;;;;;;3.75;3.25;;;;;26.84;47.70;100534.75;6218156;22;45376;-85
2021/09/10 11:05:40;;;;;;;;;4.00;4.00;;;;;26.81;47.57;100533.13;6217988;22;45349;-85
2021/09/10 11:08:06;;;;;;;;;6.25;6.25;;;;;26.79;47.38;100529.69;6191061;22;45437;-85
2021/09/10 11:10:31;;;;;;;;;4.50;4.50;;;;;26.75;47.48;100520.97;6217967;22;53455;-84
2021/09/10 11:12:57;;;;;;;;;5.00;5.00;;;;;26.73;47.70;100520.22;6167653;22;45397;-85
2021/09/10 11:15:32;;;;;;;;;4.00;4.00;;;;;26.84;47.73;100534.75;6166053;22;45398;-85
2021/09/10 11:18:00;;;;;;;;;3.75;3.75;;;;;26.84;47.29;100530.25;6195539;22;45885;-85
2021/09/10 11:20:28;;;;;;;;;4.00;4.00;;;;;26.79;47.06;100520.78;6172855;22;46437;-85
2021/09/10 11:22:54;;;;;;;;;5.50;4.75;;;;;26.79;47.14;100523.47;6141562;22;45916;-85
2021/09/10 11:25:19;;;;;;;;;5.25;5.25;;;;;26.84;48.39;100537.41;6189642;22;45290;-85
2021/09/10 11:27:45;;;;;;;;;3.00;3.00;;;;;26.74;48.87;100526.41;6190219;22;55003;-85
2021/09/10 11:30:12;;;;;;;;;6.75;5.50;;;;;26.73;48.67;100522.88;6190756;22;45247;-84